createdAt,value
2022-12-24T00:01:20.193Z,99207.00
2022-12-24T00:03:47.408Z,99212.00
2022-12-24T00:06:20.307Z,99213.00
2022-12-24T00:08:47.448Z,99188.00
2022-12-24T00:11:14.536Z,99208.00
2022-12-24T00:13:41.492Z,99204.00
2022-12-24T00:16:08.444Z,99202.00
2022-12-24T00:18:38.680Z,99200.00
2022-12-24T00:21:10.432Z,99194.00
2022-12-24T00:23:37.388Z,99189.00
2022-12-24T00:26:04.777Z,99201.00
2022-12-24T00:28:31.795Z,99204.00
2022-12-24T00:30:58.880Z,99198.00
2022-12-24T00:33:25.907Z,99203.00
2022-12-24T00:35:53.490Z,99209.00
2022-12-24T00:38:20.676Z,99204.00
2022-12-24T00:40:47.664Z,99204.00
2022-12-24T00:43:14.780Z,99204.00
2022-12-24T00:45:41.697Z,99214.00
2022-12-24T00:48:08.694Z,99208.00
2022-12-24T00:50:35.716Z,99223.00
2022-12-24T00:53:02.681Z,99212.00
2022-12-24T00:55:29.679Z,99219.00
2022-12-24T00:57:56.655Z,99214.00
2022-12-24T01:00:23.671Z,99212.00
2022-12-24T01:02:50.817Z,99218.00
2022-12-24T01:05:20.740Z,99220.00
2022-12-24T01:07:48.281Z,99210.00
2022-12-24T01:10:19.464Z,99214.00
2022-12-24T01:12:47.483Z,99227.00
2022-12-24T01:15:15.869Z,99212.00
2022-12-24T01:17:42.985Z,99212.00
2022-12-24T01:20:15.707Z,99215.00
2022-12-24T01:22:42.925Z,99208.00
2022-12-24T01:25:10.338Z,99208.00
2022-12-24T01:27:38.021Z,99212.00
2022-12-24T01:30:14.522Z,99220.00
2022-12-24T01:32:41.742Z,99217.00
2022-12-24T01:35:10.177Z,99202.00
2022-12-24T01:37:37.190Z,99233.00
2022-12-24T01:40:25.579Z,99216.00
2022-12-24T01:43:12.296Z,99230.00
2022-12-24T01:45:46.993Z,99237.00
2022-12-24T01:48:47.236Z,99232.00
2022-12-24T01:51:53.657Z,99235.00
2022-12-24T01:54:30.957Z,99243.00
2022-12-24T01:57:15.982Z,99248.00
2022-12-24T01:59:48.327Z,99251.00
2022-12-24T02:02:18.000Z,99261.00
2022-12-24T02:05:14.324Z,99256.00
2022-12-24T02:07:43.170Z,99263.00
2022-12-24T02:10:13.388Z,99255.00
2022-12-24T02:12:43.003Z,99255.00
2022-12-24T02:15:14.312Z,99263.00
2022-12-24T02:18:38.195Z,99261.00
2022-12-24T02:21:33.215Z,99266.00
2022-12-24T02:24:08.626Z,99272.00
2022-12-24T02:26:38.630Z,99272.00
2022-12-24T02:29:40.447Z,99262.00
2022-12-24T02:32:24.379Z,99278.00
2022-12-24T02:35:00.821Z,99276.00
2022-12-24T02:37:37.231Z,99277.00
2022-12-24T02:40:16.081Z,99275.00
2022-12-24T02:42:51.450Z,99282.00
2022-12-24T02:45:25.926Z,99282.00
2022-12-24T02:47:55.983Z,99285.00
2022-12-24T02:50:24.483Z,99294.00
2022-12-24T02:52:51.866Z,99289.00
2022-12-24T02:56:08.930Z,99295.00
2022-12-24T02:59:00.032Z,99291.00
2022-12-24T03:02:09.355Z,99296.00
2022-12-24T03:05:19.727Z,99297.00
2022-12-24T03:08:35.541Z,99291.00
2022-12-24T03:11:15.402Z,99310.00
2022-12-24T03:13:44.506Z,99304.00
2022-12-24T03:16:17.313Z,99300.00
2022-12-24T03:18:49.326Z,99310.00
2022-12-24T03:21:22.647Z,99308.00
2022-12-24T03:23:50.562Z,99290.00
2022-12-24T03:26:20.222Z,99306.00
2022-12-24T03:28:48.575Z,99311.00
2022-12-24T03:31:17.019Z,99321.00
2022-12-24T03:33:44.524Z,99313.00
2022-12-24T03:36:11.857Z,99326.00
2022-12-24T03:38:39.223Z,99326.00
2022-12-24T03:41:07.521Z,99332.00
2022-12-24T03:43:34.998Z,99330.00
2022-12-24T03:46:07.702Z,99333.00
2022-12-24T03:48:36.055Z,99341.00
2022-12-24T03:51:04.644Z,99346.00
2022-12-24T03:53:32.416Z,99348.00
2022-12-24T03:55:59.442Z,99341.00
2022-12-24T03:58:26.396Z,99344.00
2022-12-24T04:00:54.360Z,99329.00
2022-12-24T04:03:21.658Z,99339.00
2022-12-24T04:05:48.786Z,99340.00
2022-12-24T04:08:15.776Z,99342.00
2022-12-24T04:10:42.781Z,99341.00
2022-12-24T04:13:09.675Z,99338.00
2022-12-24T04:15:36.618Z,99346.00
2022-12-24T04:18:03.738Z,99340.00
2022-12-24T04:20:30.659Z,99338.00
2022-12-24T04:22:57.568Z,99334.00
2022-12-24T04:25:24.496Z,99327.00
2022-12-24T04:27:51.414Z,99343.00
2022-12-24T04:30:21.179Z,99347.00
2022-12-24T04:32:48.092Z,99340.00
2022-12-24T04:35:15.201Z,99340.00
2022-12-24T04:37:42.210Z,99341.00
2022-12-24T04:40:10.124Z,99345.00
2022-12-24T04:42:40.011Z,99349.00
2022-12-24T04:45:07.894Z,99342.00
2022-12-24T04:47:34.978Z,99344.00
2022-12-24T04:50:02.025Z,99351.00
2022-12-24T04:52:29.252Z,99345.00
2022-12-24T04:54:56.345Z,99343.00
2022-12-24T04:57:23.298Z,99351.00
2022-12-24T04:59:50.237Z,99352.00
2022-12-24T05:02:17.407Z,99357.00
2022-12-24T05:04:44.573Z,99347.00
2022-12-24T05:07:11.513Z,99355.00
2022-12-24T05:09:38.399Z,99356.00
2022-12-24T05:23:57.039Z,99374.00
2022-12-24T05:26:53.868Z,99380.00
2022-12-24T05:29:20.948Z,99361.00
2022-12-24T05:31:48.599Z,99371.00
2022-12-24T05:34:16.905Z,99377.00
2022-12-24T05:36:44.577Z,99388.00
2022-12-24T05:39:18.753Z,99386.00
2022-12-24T05:41:46.256Z,99384.00
2022-12-24T05:44:14.402Z,99382.00
2022-12-24T05:46:41.634Z,99388.00
2022-12-24T05:49:08.717Z,99374.00
2022-12-24T05:51:35.738Z,99393.00
2022-12-24T05:54:02.906Z,99391.00
2022-12-24T05:56:29.846Z,99388.00
2022-12-24T05:58:57.986Z,99372.00
2022-12-24T06:01:25.180Z,99384.00
2022-12-24T06:03:53.608Z,99390.00
2022-12-24T06:06:27.416Z,99368.00
2022-12-24T06:08:56.023Z,99406.00
2022-12-24T06:11:27.096Z,99404.00
2022-12-24T06:13:54.871Z,99419.00
2022-12-24T06:16:23.428Z,99426.00
2022-12-24T06:18:51.144Z,99421.00
2022-12-24T06:21:19.185Z,99429.00
2022-12-24T06:23:47.585Z,99425.00
2022-12-24T06:26:19.475Z,99431.00
2022-12-24T06:28:47.646Z,99434.00
2022-12-24T06:31:19.701Z,99435.00
2022-12-24T06:33:47.317Z,99435.00
2022-12-24T06:36:24.248Z,99444.00
2022-12-24T06:38:53.703Z,99450.00
2022-12-24T06:41:22.338Z,99447.00
2022-12-24T06:43:52.250Z,99457.00
2022-12-24T06:46:20.095Z,99462.00
2022-12-24T06:48:48.092Z,99457.00
2022-12-24T06:51:19.558Z,99470.00
2022-12-24T06:53:47.036Z,99463.00
2022-12-24T06:56:14.839Z,99468.00
2022-12-24T06:58:42.449Z,99474.00
2022-12-24T07:01:13.931Z,99476.00
2022-12-24T07:03:41.591Z,99473.00
2022-12-24T07:06:21.464Z,99480.00
2022-12-24T07:08:48.575Z,99482.00
2022-12-24T07:11:16.937Z,99490.00
2022-12-24T07:13:46.761Z,99489.00
2022-12-24T07:16:13.949Z,99506.00
2022-12-24T07:18:40.955Z,99492.00
2022-12-24T07:21:07.961Z,99491.00
2022-12-24T07:23:35.226Z,99511.00
2022-12-24T07:26:04.777Z,99510.00
2022-12-24T07:28:32.000Z,99518.00
2022-12-24T07:31:00.280Z,99521.00
2022-12-24T07:33:27.975Z,99525.00
2022-12-24T07:36:07.730Z,99524.00
2022-12-24T07:38:35.714Z,99539.00
2022-12-24T07:41:02.697Z,99533.00
2022-12-24T07:43:29.822Z,99546.00
2022-12-24T07:46:00.028Z,99551.00
2022-12-24T07:48:29.626Z,99560.00
2022-12-24T07:50:57.830Z,99562.00
2022-12-24T07:53:26.079Z,99544.00
2022-12-24T07:55:53.368Z,99554.00
2022-12-24T07:58:20.474Z,99563.00
2022-12-24T08:00:47.677Z,99567.00
2022-12-24T08:03:21.313Z,99572.00
2022-12-24T08:05:49.331Z,99576.00
2022-12-24T08:08:16.365Z,99566.00
2022-12-24T08:10:45.478Z,99573.00
2022-12-24T08:13:14.454Z,99510.00
2022-12-24T08:15:41.949Z,99588.00
2022-12-24T08:18:09.775Z,99583.00
2022-12-24T08:20:41.416Z,99602.00
2022-12-24T08:23:09.582Z,99605.00
2022-12-24T08:25:37.732Z,99606.00
2022-12-24T08:28:06.504Z,99600.00
2022-12-24T08:30:33.921Z,99602.00
2022-12-24T08:33:00.948Z,99605.00
2022-12-24T08:35:28.028Z,99608.00
2022-12-24T08:37:55.090Z,99616.00
2022-12-24T08:40:22.533Z,99610.00
2022-12-24T08:54:59.419Z,99626.00
2022-12-24T08:57:26.362Z,99647.00
2022-12-24T08:59:54.013Z,99610.00
2022-12-24T09:02:21.443Z,99642.00
2022-12-24T09:04:49.618Z,99646.00
2022-12-24T09:07:16.659Z,99644.00
2022-12-24T09:09:43.655Z,99654.00
2022-12-24T09:12:10.705Z,99653.00
2022-12-24T09:14:37.611Z,99650.00
2022-12-24T09:17:04.651Z,99660.00
2022-12-24T09:19:31.720Z,99654.00
2022-12-24T09:21:58.632Z,99653.00
2022-12-24T09:24:26.093Z,99655.00
2022-12-24T09:26:57.799Z,99658.00
2022-12-24T09:29:25.736Z,99663.00
2022-12-24T09:31:55.259Z,99664.00
2022-12-24T09:34:29.828Z,99679.00
2022-12-24T09:36:59.905Z,99679.00
2022-12-24T09:39:26.928Z,99680.00
2022-12-24T09:42:40.224Z,99674.00
2022-12-24T09:45:31.059Z,99683.00
2022-12-24T09:48:05.524Z,99674.00
2022-12-24T09:50:57.125Z,99677.00
2022-12-24T09:53:34.949Z,99689.00
2022-12-24T09:56:12.848Z,99685.00
2022-12-24T09:59:05.757Z,99700.00
2022-12-24T10:01:34.892Z,99694.00
2022-12-24T10:04:16.946Z,99689.00
2022-12-24T10:06:52.566Z,99707.00
2022-12-24T10:09:54.675Z,99693.00
2022-12-24T10:13:08.304Z,99699.00
2022-12-24T10:16:01.585Z,99701.00
2022-12-24T10:18:59.768Z,99710.00
2022-12-24T10:22:13.141Z,99710.00
2022-12-24T10:25:04.756Z,99701.00
2022-12-24T10:27:39.909Z,99705.00
2022-12-24T10:30:21.018Z,99704.00
2022-12-24T10:32:51.942Z,99708.00
2022-12-24T10:35:32.316Z,99711.00
2022-12-24T10:37:59.336Z,99711.00
2022-12-24T10:40:47.059Z,99712.00
2022-12-24T10:43:22.128Z,99726.00
2022-12-24T10:46:03.103Z,99722.00
2022-12-24T10:48:46.410Z,99732.00
2022-12-24T10:51:59.979Z,99728.00
2022-12-24T10:54:29.638Z,99721.00
2022-12-24T10:57:02.859Z,99741.00
2022-12-24T10:59:50.422Z,99738.00
2022-12-24T11:02:40.635Z,99740.00
2022-12-24T11:05:28.097Z,99745.00
2022-12-24T11:08:06.451Z,99740.00
2022-12-24T11:10:39.723Z,99741.00
2022-12-24T11:13:40.287Z,99740.00
2022-12-24T11:16:29.690Z,99754.00
2022-12-24T11:19:16.900Z,99751.00
2022-12-24T11:21:44.600Z,99748.00
2022-12-24T11:24:14.533Z,99760.00
2022-12-24T11:26:44.732Z,99761.00
2022-12-24T11:29:28.268Z,99770.00
2022-12-24T11:32:19.101Z,99774.00
2022-12-24T11:34:46.253Z,99767.00
2022-12-24T11:37:22.880Z,99766.00
2022-12-24T11:39:58.356Z,99775.00
2022-12-24T11:42:39.192Z,99777.00
2022-12-24T11:45:20.601Z,99786.00
2022-12-24T11:47:47.655Z,99791.00
2022-12-24T11:50:35.700Z,99795.00
2022-12-24T11:53:18.258Z,99791.00
2022-12-24T11:55:51.067Z,99792.00
2022-12-24T11:58:45.014Z,99804.00
2022-12-24T12:01:39.114Z,99810.00
2022-12-24T12:04:31.084Z,99817.00
2022-12-24T12:07:15.175Z,99820.00
2022-12-24T12:10:08.615Z,99819.00
2022-12-24T12:12:44.975Z,99820.00
2022-12-24T12:15:25.853Z,99811.00
2022-12-24T12:18:12.024Z,99821.00
2022-12-24T12:20:50.311Z,99809.00
2022-12-24T12:23:27.941Z,99821.00
2022-12-24T12:26:22.339Z,99833.00
2022-12-24T12:29:18.860Z,99821.00
2022-12-24T12:31:55.393Z,99832.00
2022-12-24T12:35:06.367Z,99835.00
2022-12-24T12:37:41.526Z,99841.00
2022-12-24T12:40:16.995Z,99845.00
2022-12-24T12:43:15.986Z,99854.00
2022-12-24T12:46:13.633Z,99864.00
2022-12-24T12:48:58.584Z,99861.00
2022-12-24T12:51:52.220Z,99840.00
2022-12-24T12:54:25.813Z,99864.00
2022-12-24T12:57:00.435Z,99860.00
2022-12-24T13:00:03.092Z,99864.00
2022-12-24T13:03:09.056Z,99873.00
2022-12-24T13:06:12.430Z,99874.00
2022-12-24T13:09:05.557Z,99886.00
2022-12-24T13:11:41.487Z,99881.00
2022-12-24T13:14:45.505Z,99881.00
2022-12-24T13:17:50.384Z,99884.00
2022-12-24T13:20:33.960Z,99882.00
2022-12-24T13:23:12.841Z,99891.00
2022-12-24T13:25:44.369Z,99900.00
2022-12-24T13:28:23.721Z,99891.00
2022-12-24T13:31:25.755Z,99893.00
2022-12-24T13:33:59.280Z,99892.00
2022-12-24T13:37:03.841Z,99887.00
2022-12-24T13:40:05.777Z,99906.00
2022-12-24T13:42:59.193Z,99909.00
2022-12-24T13:45:29.010Z,99900.00
2022-12-24T13:47:56.823Z,99904.00
2022-12-24T13:50:45.675Z,99895.00
2022-12-24T13:53:50.648Z,99906.00
2022-12-24T13:56:17.576Z,99909.00
2022-12-24T13:58:52.832Z,99926.00
2022-12-24T14:01:36.955Z,99931.00
2022-12-24T14:04:09.451Z,99926.00
2022-12-24T14:06:42.089Z,99938.00
2022-12-24T14:09:19.308Z,99940.00
2022-12-24T14:12:04.291Z,99945.00
2022-12-24T14:14:43.329Z,99944.00
2022-12-24T14:17:31.105Z,99939.00
2022-12-24T14:20:01.979Z,99944.00
2022-12-24T14:22:44.034Z,99948.00
2022-12-24T14:25:21.528Z,99948.00
2022-12-24T14:28:05.278Z,99957.00
2022-12-24T14:30:32.632Z,99923.00
2022-12-24T14:32:59.607Z,99965.00
2022-12-24T14:35:36.924Z,99971.00
2022-12-24T14:38:21.476Z,99972.00
2022-12-24T14:41:18.616Z,99983.00
2022-12-24T14:44:15.059Z,99982.00
2022-12-24T14:47:01.713Z,99982.00
2022-12-24T14:49:56.279Z,100003.00
2022-12-24T14:53:05.392Z,99982.00
2022-12-24T14:55:44.692Z,99997.00
2022-12-24T14:58:28.895Z,99995.00
2022-12-24T15:01:22.196Z,99990.00
2022-12-24T15:04:11.076Z,99997.00
2022-12-24T15:06:53.976Z,100005.00
2022-12-24T15:09:26.147Z,100005.00
2022-12-24T15:11:59.243Z,100011.00
2022-12-24T15:14:30.298Z,100008.00
2022-12-24T15:17:04.317Z,100016.00
2022-12-24T15:19:47.197Z,100012.00
2022-12-24T15:22:32.093Z,100014.00
2022-12-24T15:24:59.108Z,100010.00
2022-12-24T15:27:32.328Z,100019.00
2022-12-24T15:30:12.184Z,100011.00
2022-12-24T15:32:39.157Z,100005.00
2022-12-24T15:35:06.564Z,100013.00
2022-12-24T15:37:39.962Z,100017.00
2022-12-24T15:40:24.840Z,100022.00
2022-12-24T15:42:52.992Z,100018.00
2022-12-24T15:45:31.482Z,100027.00
2022-12-24T15:48:10.518Z,100020.00
2022-12-24T15:50:48.510Z,100037.00
2022-12-24T15:53:33.129Z,100048.00
2022-12-24T15:56:04.601Z,100046.00
2022-12-24T15:58:37.773Z,100056.00
2022-12-24T16:01:13.990Z,100046.00
2022-12-24T16:04:01.512Z,100056.00
2022-12-24T16:06:48.685Z,100059.00
2022-12-24T16:09:45.807Z,100048.00
2022-12-24T16:12:22.174Z,100045.00
2022-12-24T16:14:59.576Z,99945.00
2022-12-24T16:17:34.305Z,100044.00
2022-12-24T16:20:07.416Z,100043.00
2022-12-24T16:22:39.731Z,100044.00
2022-12-24T16:36:48.555Z,100058.00
2022-12-24T16:39:24.452Z,100060.00
2022-12-24T16:42:18.846Z,100062.00
2022-12-24T16:44:47.271Z,100063.00
2022-12-24T16:47:33.650Z,100062.00
2022-12-24T16:50:08.846Z,100053.00
2022-12-24T16:52:35.690Z,100063.00
2022-12-24T16:55:02.850Z,100063.00
2022-12-24T16:57:32.950Z,100059.00
2022-12-24T16:59:59.985Z,100064.00
2022-12-24T17:02:27.204Z,100075.00
2022-12-24T17:04:55.135Z,100070.00
2022-12-24T17:07:22.316Z,100070.00
2022-12-24T17:09:49.346Z,100053.00
2022-12-24T17:12:16.604Z,100089.00
2022-12-24T17:14:43.754Z,100077.00
2022-12-24T17:17:26.598Z,100089.00
2022-12-24T17:19:55.524Z,100098.00
2022-12-24T17:22:23.664Z,100096.00
2022-12-24T17:24:50.773Z,100093.00
2022-12-24T17:27:17.749Z,100088.00
2022-12-24T17:29:44.963Z,100096.00
2022-12-24T17:32:11.927Z,100090.00
2022-12-24T17:34:39.127Z,100088.00
2022-12-24T17:37:06.115Z,100084.00
2022-12-24T17:39:33.179Z,100088.00
2022-12-24T17:42:00.256Z,100102.00
2022-12-24T17:44:27.435Z,100088.00
2022-12-24T17:46:54.710Z,100101.00
2022-12-24T17:49:21.916Z,100094.00
2022-12-24T17:51:48.870Z,100088.00
2022-12-24T17:54:15.952Z,100095.00
2022-12-24T17:56:42.929Z,100101.00
2022-12-24T17:59:09.867Z,100105.00
2022-12-24T18:01:37.028Z,100111.00
2022-12-24T18:04:04.925Z,100103.00
2022-12-24T18:06:32.137Z,100112.00
2022-12-24T18:09:02.265Z,100098.00
2022-12-24T18:11:33.550Z,100109.00
2022-12-24T18:14:05.367Z,100111.00
2022-12-24T18:16:37.745Z,100117.00
2022-12-24T18:19:10.412Z,100111.00
2022-12-24T18:21:37.572Z,100109.00
2022-12-24T18:24:05.567Z,100106.00
2022-12-24T18:26:33.355Z,100103.00
2022-12-24T18:29:04.597Z,100112.00
2022-12-24T18:31:33.751Z,100112.00
2022-12-24T18:34:04.414Z,100118.00
2022-12-24T18:36:31.720Z,100119.00
2022-12-24T18:38:59.256Z,100122.00
2022-12-24T18:41:30.572Z,100134.00
2022-12-24T18:43:58.833Z,100137.00
2022-12-24T18:46:30.520Z,100125.00
2022-12-24T18:48:59.714Z,100130.00
2022-12-24T18:51:37.667Z,100140.00
2022-12-24T18:54:05.841Z,100152.00
2022-12-24T18:56:33.103Z,100142.00
2022-12-24T18:59:02.700Z,100133.00
2022-12-24T19:01:33.562Z,100155.00
2022-12-24T19:04:01.104Z,100149.00
2022-12-24T19:06:28.158Z,100157.00
2022-12-24T19:08:57.627Z,100153.00
2022-12-24T19:11:31.683Z,100157.00
2022-12-24T19:14:00.342Z,100147.00
2022-12-24T19:16:30.261Z,100142.00
2022-12-24T19:18:57.916Z,100156.00
2022-12-24T19:21:24.962Z,100158.00
2022-12-24T19:23:52.253Z,100162.00
2022-12-24T19:26:20.765Z,100169.00
2022-12-24T19:28:48.429Z,100176.00
2022-12-24T19:31:20.302Z,100186.00
2022-12-24T19:33:56.893Z,100186.00
2022-12-24T19:36:30.544Z,100190.00
2022-12-24T19:38:59.272Z,100211.00
2022-12-24T19:41:29.619Z,100194.00
2022-12-24T19:44:01.282Z,100215.00
2022-12-24T19:46:32.195Z,100203.00
2022-12-24T19:49:05.026Z,100207.00
2022-12-24T19:51:32.859Z,100211.00
2022-12-24T19:54:01.143Z,100201.00
2022-12-24T19:56:30.771Z,100229.00
2022-12-24T19:59:01.332Z,100230.00
2022-12-24T20:01:31.784Z,100235.00
2022-12-24T20:04:00.212Z,100241.00
2022-12-24T20:06:31.861Z,100252.00
2022-12-24T20:09:08.015Z,100247.00
2022-12-24T20:11:35.607Z,100249.00
2022-12-24T20:14:05.004Z,100257.00
2022-12-24T20:16:33.149Z,100245.00
2022-12-24T20:19:04.130Z,100245.00
2022-12-24T20:21:32.326Z,100251.00
2022-12-24T20:23:59.490Z,100242.00
2022-12-24T20:26:29.241Z,100240.00
2022-12-24T20:28:56.773Z,100223.00
2022-12-24T20:31:28.571Z,100252.00
2022-12-24T20:33:57.983Z,100248.00
2022-12-24T20:48:08.096Z,100209.00
2022-12-24T20:50:35.043Z,100262.00
2022-12-24T20:53:01.972Z,100272.00
2022-12-24T20:55:28.943Z,100269.00
2022-12-24T20:57:55.936Z,100265.00
2022-12-24T21:00:22.946Z,100263.00
2022-12-24T21:02:50.018Z,100255.00
2022-12-24T21:05:17.119Z,100256.00
2022-12-24T21:07:44.096Z,100257.00
2022-12-24T21:10:14.411Z,100274.00
2022-12-24T21:12:49.194Z,100273.00
2022-12-24T21:15:29.144Z,100271.00
2022-12-24T21:17:58.718Z,100278.00
2022-12-24T21:20:30.793Z,100263.00
2022-12-24T21:23:01.314Z,100274.00
2022-12-24T21:25:28.778Z,100267.00
2022-12-24T21:27:56.005Z,100276.00
2022-12-24T21:30:24.182Z,100273.00
2022-12-24T21:32:51.864Z,100251.00
2022-12-24T21:35:18.861Z,100261.00
2022-12-24T21:37:46.086Z,100262.00
2022-12-24T21:40:13.244Z,100252.00
2022-12-24T21:42:43.379Z,100255.00
2022-12-24T21:45:11.679Z,100263.00
2022-12-24T21:47:38.739Z,100258.00
2022-12-24T21:50:30.087Z,100264.00
2022-12-24T21:53:18.383Z,100235.00
2022-12-24T21:55:46.603Z,100257.00
2022-12-24T21:58:13.671Z,100252.00
2022-12-24T22:00:40.825Z,100231.00
2022-12-24T22:03:08.209Z,100245.00
2022-12-24T22:05:35.591Z,100239.00
2022-12-24T22:08:21.673Z,100252.00
2022-12-24T22:11:07.145Z,100254.00
2022-12-24T22:13:34.573Z,100263.00
2022-12-24T22:16:01.690Z,100264.00
2022-12-24T22:18:28.745Z,100249.00
2022-12-24T22:20:56.226Z,100241.00
2022-12-24T22:23:23.218Z,100258.00
2022-12-24T22:25:50.496Z,100250.00
2022-12-24T22:28:17.545Z,100249.00
2022-12-24T22:30:44.641Z,100250.00
2022-12-24T22:33:11.711Z,100259.00
2022-12-24T22:35:40.268Z,100257.00
2022-12-24T22:38:12.718Z,100266.00
2022-12-24T22:40:40.318Z,100277.00
2022-12-24T22:43:07.564Z,100272.00
2022-12-24T22:45:34.716Z,100282.00
2022-12-24T22:48:01.718Z,100275.00
2022-12-24T22:50:28.719Z,100280.00
2022-12-24T22:52:55.761Z,100277.00
2022-12-24T22:55:22.935Z,100275.00
2022-12-24T22:57:49.965Z,100274.00
2022-12-24T23:00:44.774Z,100275.00
2022-12-24T23:03:12.890Z,100252.00
2022-12-24T23:05:40.435Z,100270.00
2022-12-24T23:08:08.189Z,100241.00
2022-12-24T23:10:35.294Z,100265.00
2022-12-24T23:13:21.176Z,100224.00
2022-12-24T23:15:48.555Z,100266.00
2022-12-24T23:18:15.779Z,100274.00
2022-12-24T23:20:47.593Z,100269.00
2022-12-24T23:23:15.808Z,100263.00
2022-12-24T23:25:42.900Z,100273.00
2022-12-24T23:28:09.908Z,100280.00
2022-12-24T23:30:37.009Z,100282.00
2022-12-24T23:33:04.032Z,100288.00
2022-12-24T23:35:31.072Z,100308.00
2022-12-24T23:37:57.981Z,100310.00
2022-12-24T23:40:25.061Z,100317.00
2022-12-24T23:42:52.016Z,100316.00
2022-12-24T23:45:18.961Z,100320.00
2022-12-24T23:47:48.870Z,100307.00
2022-12-24T23:50:15.858Z,100315.00
2022-12-24T23:52:42.830Z,100316.00
2022-12-24T23:55:09.894Z,100314.00
2022-12-24T23:57:36.880Z,100305.00
